EDT,Max TemperatureF,Mean TemperatureF,Min TemperatureF,Max Dew PointF,MeanDew PointF,Min DewpointF,Max Humidity, Mean Humidity, Min Humidity, Max Sea Level PressureIn, Mean Sea Level PressureIn, Min Sea Level PressureIn, Max VisibilityMiles, Mean VisibilityMiles, Min VisibilityMiles, Max Wind SpeedMPH, Mean Wind SpeedMPH, Max Gust SpeedMPH,PrecipitationIn, CloudCover, Events, WindDirDegrees
2013-6-1,84,76,69,70,66,63,88,72,58,30.06,29.97,29.86,10,10,10,18,9,26,0.00,4,Rain,229
2013-6-2,75,70,64,66,63,59,88,80,65,29.98,29.94,29.90,10,10,10,13,6,20,0.00,6,,263
2013-6-3,75,66,57,59,56,54,94,73,50,30.08,30.00,29.95,10,10,10,9,4,,0.00,5,,2
2013-6-4,77,64,51,55,53,50,100,68,44,30.15,30.10,30.07,10,10,7,13,5,16,0.00,1,,88
2013-6-5,82,68,55,66,58,48,94,68,48,30.09,30.01,29.91,10,10,10,10,5,18,0.00,4,,172
2013-6-6,77,70,64,68,65,63,100,86,65,29.92,29.84,29.80,10,10,5,13,6,18,0.02,5,Rain,241
2013-6-7,73,68,62,64,61,55,100,86,53,29.90,29.84,29.80,10,6,0,9,4,,0.00,6,Fog,49
2013-6-8,78,68,57,64,59,55,100,75,50,30.08,29.99,29.91,10,9,3,7,2,,0.00,4,Rain,135
2013-6-9,80,70,59,68,63,59,100,86,51,30.12,30.06,29.99,10,8,2,9,4,24,1.01,6,Rain,180
2013-6-10,77,70,64,66,64,61,100,87,61,29.99,29.90,29.87,10,10,2,15,7,21,0.04,6,Rain,238
2013-6-11,80,71,62,66,64,61,100,75,57,30.04,29.99,29.95,10,9,5,10,6,9,0.00,1,,259
2013-6-12,89,78,68,73,69,64,88,71,55,30.02,29.95,29.86,10,10,10,14,7,21,0.00,0,,256
2013-6-13,80,70,60,72,67,55,100,79,57,29.96,29.82,29.71,10,10,1,20,11,41,0.41,4,Rain,295
2013-6-14,78,66,53,61,57,54,100,71,44,30.09,30.03,29.95,10,10,7,8,4,,0.00,1,,9
2013-6-15,82,68,53,63,58,54,100,70,42,30.17,30.10,30.03,10,10,4,10,2,,0.00,0,,216
2013-6-16,80,72,64,72,64,61,100,80,65,30.10,30.05,30.02,10,10,5,10,5,18,0.17,3,Rain,247
2013-6-17,84,74,64,72,67,57,100,83,57,30.04,30.00,29.92,10,10,2,14,4,18,0.32,5,Rain,247
2013-6-18,78,70,62,66,63,61,100,84,54,30.01,29.95,29.89,10,9,5,17,4,34,0.41,6,Rain,21
2013-6-19,78,69,60,64,61,57,100,77,47,30.15,30.08,29.99,10,9,3,9,3,,0.00,1,,46
2013-6-20,82,70,59,64,60,57,100,72,45,30.24,30.20,30.15,10,10,10,9,1,,0.00,1,,92
2013-6-21,86,73,60,68,65,61,100,74,48,30.26,30.22,30.17,10,10,4,7,2,,0.00,1,,213
2013-6-22,86,75,64,70,66,63,100,74,45,30.25,30.19,30.12,10,9,5,8,3,,0.00,1,,230
2013-6-23,86,74,62,68,65,63,100,73,45,30.22,30.16,30.11,10,9,2,9,3,,0.00,1,,236
2013-6-24,84,74,64,70,67,63,100,81,58,30.21,30.16,30.11,10,10,7,10,3,17,0.00,1,Rain,262
2013-6-25,87,78,68,73,70,66,100,80,58,30.14,30.08,29.99,10,9,2,9,5,,0.02,2,Rain,243
2013-6-26,86,76,66,73,69,64,100,85,55,30.03,29.96,29.85,10,10,2,13,6,39,0.98,4,Rain,253
2013-6-27,84,74,64,73,69,64,100,87,62,29.89,29.83,29.79,10,9,1,12,5,17,1.38,6,Rain,276
2013-6-28,84,74,64,72,65,59,94,71,45,29.80,29.72,29.65,10,10,10,13,7,22,0.00,1,,291
2013-6-29,80,71,62,66,62,59,94,76,54,29.71,29.67,29.64,10,10,10,12,5,24,0.00,4,,250
2013-6-30,80,71,62,64,63,61,100,79,54,29.84,29.77,29.70,10,9,0,9,3,,0.07,5,Fog-Rain,298